Lancaster, Ohio
Current Conditions -  °F | °C
As of 12:53 PM on Thursday 23 Oct 2014 (Local Time) from KLHQ Reporting Station
Clear Clear  
Wind Chill: 54°   Ceiling: Unl
Heat Index: 54°   Visibility: 10mi
Dew Point: 43°   Wind: 3mph
Humidity: 66%   Direction: 280°W
Pressure: 30.21"   Gusts: NA
Location:  39.71°N, 82.6°W
Report Text: KLHQ 231653Z AUTO 28003KT 10SM CLR 12/06 A3021 RMK AO2 SLP231 T01220061
Loading
Personal Weather Stations






























Interactive Weather Map New forecast layout! Learn more

10-Day Weather Forecast

Advertisements
Track Severe Weather on mobile